Terminal Aerodrome Forecast
Issued by NWS Cleveland, OH

Home | Current Version | Previous Version | Graphics & Text | Print | Product List | Glossary On
Versions: 1 2 3 4 5 6 7 8 9 10 11 12 13 14 15 16 17 18 19
000
FTUS41 KCLE 241100
TAFYNG
TAF
KYNG 241139Z 2412/2512 18007KT P6SM SCT200
     FM241700 21014G22KT P6SM SCT030 BKN200
     FM250100 22012G20KT P6SM BKN050
     FM250400 23010KT 6SM -SN BKN030
     FM250800 25008KT 3SM -SN BKN015=

USA.gov is the U.S. government's official web portal to all federal, state and local government web resources and services.